sensor_id;sensor_type;location;lat;lon;timestamp;pressure;altitude;pressure_sealevel;temperature;humidity
4410;BME280;2218;51.408;7.208;2023-03-13T00:00:01;98606.00;;;17.33;42.31
4410;BME280;2218;51.408;7.208;2023-03-13T00:02:31;98613.88;;;17.33;42.39
4410;BME280;2218;51.408;7.208;2023-03-13T00:04:58;98599.78;;;17.34;42.41
4410;BME280;2218;51.408;7.208;2023-03-13T00:07:27;98598.13;;;17.33;42.39
4410;BME280;2218;51.408;7.208;2023-03-13T00:09:53;98600.63;;;17.35;42.57
4410;BME280;2218;51.408;7.208;2023-03-13T00:12:20;98590.13;;;17.35;42.38
4410;BME280;2218;51.408;7.208;2023-03-13T00:14:47;98589.28;;;17.34;42.51
4410;BME280;2218;51.408;7.208;2023-03-13T00:17:14;98583.19;;;17.34;42.24
4410;BME280;2218;51.408;7.208;2023-03-13T00:19:41;98583.06;;;17.35;42.42
4410;BME280;2218;51.408;7.208;2023-03-13T00:22:08;98580.56;;;17.34;42.66
4410;BME280;2218;51.408;7.208;2023-03-13T00:24:36;98583.19;;;17.34;42.42
4410;BME280;2218;51.408;7.208;2023-03-13T00:27:03;98572.69;;;17.34;42.64
4410;BME280;2218;51.408;7.208;2023-03-13T00:29:33;98573.53;;;17.34;42.51
4410;BME280;2218;51.408;7.208;2023-03-13T00:32:00;98567.44;;;17.34;42.54
4410;BME280;2218;51.408;7.208;2023-03-13T00:34:28;98564.81;;;17.34;42.34
4410;BME280;2218;51.408;7.208;2023-03-13T00:36:55;98564.81;;;17.34;42.43
4410;BME280;2218;51.408;7.208;2023-03-13T00:39:22;98554.31;;;17.34;42.71
4410;BME280;2218;51.408;7.208;2023-03-13T00:41:50;98553.47;;;17.33;42.63
4410;BME280;2218;51.408;7.208;2023-03-13T00:44:17;98552.53;;;17.34;42.48
4410;BME280;2218;51.408;7.208;2023-03-13T00:46:46;98538.56;;;17.34;42.63
4410;BME280;2218;51.408;7.208;2023-03-13T00:49:13;98539.53;;;17.33;42.70
4410;BME280;2218;51.408;7.208;2023-03-13T00:51:40;98529.84;;;17.33;42.75
4410;BME280;2218;51.408;7.208;2023-03-13T00:54:08;98530.69;;;17.34;43.03
4410;BME280;2218;51.408;7.208;2023-03-13T00:56:35;98516.84;;;17.31;42.81
4410;BME280;2218;51.408;7.208;2023-03-13T00:59:04;98518.50;;;17.33;42.87
4410;BME280;2218;51.408;7.208;2023-03-13T01:01:33;98515.88;;;17.33;42.84
4410;BME280;2218;51.408;7.208;2023-03-13T01:04:04;98511.59;;;17.31;42.85
4410;BME280;2218;51.408;7.208;2023-03-13T01:06:34;98508.00;;;17.33;42.63
4410;BME280;2218;51.408;7.208;2023-03-13T01:09:02;98491.44;;;17.32;43.10
4410;BME280;2218;51.408;7.208;2023-03-13T01:11:33;98495.84;;;17.31;43.13
4410;BME280;2218;51.408;7.208;2023-03-13T01:14:05;98480.09;;;17.31;42.90
4410;BME280;2218;51.408;7.208;2023-03-13T01:16:34;98471.38;;;17.31;43.07
4410;BME280;2218;51.408;7.208;2023-03-13T01:19:05;98461.72;;;17.31;42.90
4410;BME280;2218;51.408;7.208;2023-03-13T01:21:34;98453.84;;;17.31;43.35
4410;BME280;2218;51.408;7.208;2023-03-13T01:24:03;98453.00;;;17.31;43.39
4410;BME280;2218;51.408;7.208;2023-03-13T01:26:30;98437.25;;;17.31;43.27
4410;BME280;2218;51.408;7.208;2023-03-13T01:28:57;98433.78;;;17.30;43.51
4410;BME280;2218;51.408;7.208;2023-03-13T01:31:28;98437.25;;;17.31;43.29
4410;BME280;2218;51.408;7.208;2023-03-13T01:33:59;98437.25;;;17.31;43.51
4410;BME280;2218;51.408;7.208;2023-03-13T01:36:28;98440.81;;;17.30;43.58
4410;BME280;2218;51.408;7.208;2023-03-13T01:38:58;98432.09;;;17.29;43.38
4410;BME280;2218;51.408;7.208;2023-03-13T01:41:28;98431.16;;;17.30;43.66
4410;BME280;2218;51.408;7.208;2023-03-13T01:43:56;98430.19;;;17.31;43.58
4410;BME280;2218;51.408;7.208;2023-03-13T01:46:29;98418.03;;;17.30;43.77
4410;BME280;2218;51.408;7.208;2023-03-13T01:49:07;98399.66;;;17.30;44.00
4410;BME280;2218;51.408;7.208;2023-03-13T01:51:52;98397.03;;;17.30;43.85
4410;BME280;2218;51.408;7.208;2023-03-13T01:54:27;98391.88;;;17.29;44.04
4410;BME280;2218;51.408;7.208;2023-03-13T01:56:59;98384.84;;;17.29;43.90
4410;BME280;2218;51.408;7.208;2023-03-13T01:59:32;98376.97;;;17.29;43.94
4410;BME280;2218;51.408;7.208;2023-03-13T02:02:04;98374.34;;;17.29;44.11
4410;BME280;2218;51.408;7.208;2023-03-13T02:04:37;98363.00;;;17.29;44.06
4410;BME280;2218;51.408;7.208;2023-03-13T02:07:11;98357.75;;;17.29;43.96
4410;BME280;2218;51.408;7.208;2023-03-13T02:09:42;98351.66;;;17.28;44.25
4410;BME280;2218;51.408;7.208;2023-03-13T02:12:17;98348.22;;;17.28;44.09
4410;BME280;2218;51.408;7.208;2023-03-13T02:14:50;98336.88;;;17.27;44.19
4410;BME280;2218;51.408;7.208;2023-03-13T02:17:20;98328.03;;;17.28;44.46
4410;BME280;2218;51.408;7.208;2023-03-13T02:19:49;98323.75;;;17.27;44.65
4410;BME280;2218;51.408;7.208;2023-03-13T02:22:23;98318.50;;;17.27;44.48
4410;BME280;2218;51.408;7.208;2023-03-13T02:25:00;98316.72;;;17.28;44.61
4410;BME280;2218;51.408;7.208;2023-03-13T02:27:30;98304.56;;;17.27;44.66
4410;BME280;2218;51.408;7.208;2023-03-13T02:29:58;98307.19;;;17.27;44.62
4410;BME280;2218;51.408;7.208;2023-03-13T02:32:28;98302.88;;;17.26;44.98
4410;BME280;2218;51.408;7.208;2023-03-13T02:35:01;98285.34;;;17.26;44.84
4410;BME280;2218;51.408;7.208;2023-03-13T02:37:30;98277.47;;;17.26;44.98
4410;BME280;2218;51.408;7.208;2023-03-13T02:40:04;98272.22;;;17.26;44.90
4410;BME280;2218;51.408;7.208;2023-03-13T02:42:38;98266.97;;;17.26;45.06
4410;BME280;2218;51.408;7.208;2023-03-13T02:45:09;98269.59;;;17.26;45.05
4410;BME280;2218;51.408;7.208;2023-03-13T02:47:36;98262.66;;;17.25;45.38
4410;BME280;2218;51.408;7.208;2023-03-13T02:50:03;98253.00;;;17.26;45.29
4410;BME280;2218;51.408;7.208;2023-03-13T02:52:35;98247.88;;;17.24;45.54
4410;BME280;2218;51.408;7.208;2023-03-13T02:55:09;98256.47;;;17.26;45.42
4410;BME280;2218;51.408;7.208;2023-03-13T02:57:39;98243.44;;;17.25;45.11
4410;BME280;2218;51.408;7.208;2023-03-13T03:00:08;98244.28;;;17.25;45.49
4410;BME280;2218;51.408;7.208;2023-03-13T03:02:38;98246.91;;;17.25;45.46
4410;BME280;2218;51.408;7.208;2023-03-13T03:05:06;98238.19;;;17.25;45.50
4410;BME280;2218;51.408;7.208;2023-03-13T03:07:33;98228.53;;;17.25;45.60
4410;BME280;2218;51.408;7.208;2023-03-13T03:10:00;98225.91;;;17.25;45.41
4410;BME280;2218;51.408;7.208;2023-03-13T03:12:28;98224.97;;;17.26;45.44
4410;BME280;2218;51.408;7.208;2023-03-13T03:14:57;98224.00;;;17.27;45.88
4410;BME280;2218;51.408;7.208;2023-03-13T03:17:24;98217.78;;;17.28;46.01
4410;BME280;2218;51.408;7.208;2023-03-13T03:19:52;98205.38;;;17.30;45.99
4410;BME280;2218;51.408;7.208;2023-03-13T03:22:19;98202.59;;;17.32;46.32
4410;BME280;2218;51.408;7.208;2023-03-13T03:24:46;98207.72;;;17.34;45.96
4410;BME280;2218;51.408;7.208;2023-03-13T03:27:13;98205.91;;;17.34;46.15
4410;BME280;2218;51.408;7.208;2023-03-13T03:29:46;98208.44;;;17.36;46.28
4410;BME280;2218;51.408;7.208;2023-03-13T03:32:15;98187.44;;;17.36;46.26
4410;BME280;2218;51.408;7.208;2023-03-13T03:34:42;98200.41;;;17.37;46.50
4410;BME280;2218;51.408;7.208;2023-03-13T03:37:09;98201.25;;;17.38;46.43
4410;BME280;2218;51.408;7.208;2023-03-13T03:39:38;98196.00;;;17.38;46.34
4410;BME280;2218;51.408;7.208;2023-03-13T03:42:05;98196.00;;;17.38;46.64
4410;BME280;2218;51.408;7.208;2023-03-13T03:44:34;98184.66;;;17.37;46.26
4410;BME280;2218;51.408;7.208;2023-03-13T03:47:02;98196.00;;;17.38;46.47
4410;BME280;2218;51.408;7.208;2023-03-13T03:49:34;98190.75;;;17.38;46.57
4410;BME280;2218;51.408;7.208;2023-03-13T03:52:01;98180.25;;;17.38;46.65
4410;BME280;2218;51.408;7.208;2023-03-13T03:54:33;98180.25;;;17.38;46.85
4410;BME280;2218;51.408;7.208;2023-03-13T03:57:01;98182.88;;;17.38;46.64
4410;BME280;2218;51.408;7.208;2023-03-13T03:59:28;98169.72;;;17.38;46.50
4410;BME280;2218;51.408;7.208;2023-03-13T04:01:57;98162.81;;;17.37;46.36
4410;BME280;2218;51.408;7.208;2023-03-13T04:04:26;98185.50;;;17.38;47.11
4410;BME280;2218;51.408;7.208;2023-03-13T04:07:02;98164.47;;;17.38;46.73
4410;BME280;2218;51.408;7.208;2023-03-13T04:09:30;98185.50;;;17.38;46.49
4410;BME280;2218;51.408;7.208;2023-03-13T04:11:57;98187.28;;;17.37;46.92
4410;BME280;2218;51.408;7.208;2023-03-13T04:14:24;98185.50;;;17.38;46.89
4410;BME280;2218;51.408;7.208;2023-03-13T04:16:52;98180.25;;;17.38;46.83
4410;BME280;2218;51.408;7.208;2023-03-13T04:19:18;98181.06;;;17.38;47.02
4410;BME280;2218;51.408;7.208;2023-03-13T04:21:46;98180.25;;;17.38;47.02
4410;BME280;2218;51.408;7.208;2023-03-13T04:24:17;98181.06;;;17.38;47.18
4410;BME280;2218;51.408;7.208;2023-03-13T04:26:44;98174.97;;;17.38;46.83
4410;BME280;2218;51.408;7.208;2023-03-13T04:29:13;98174.97;;;17.38;47.08
4410;BME280;2218;51.408;7.208;2023-03-13T04:32:03;98159.22;;;17.38;47.18
4410;BME280;2218;51.408;7.208;2023-03-13T04:34:49;98156.59;;;17.38;47.26
4410;BME280;2218;51.408;7.208;2023-03-13T04:37:30;98146.09;;;17.38;46.96
4410;BME280;2218;51.408;7.208;2023-03-13T04:40:18;98153.97;;;17.38;47.74
4410;BME280;2218;51.408;7.208;2023-03-13T04:43:03;98137.25;;;17.39;47.02
4410;BME280;2218;51.408;7.208;2023-03-13T04:45:51;98148.72;;;17.38;47.61
4410;BME280;2218;51.408;7.208;2023-03-13T04:48:39;98143.47;;;17.38;47.89
4410;BME280;2218;51.408;7.208;2023-03-13T04:51:39;98143.47;;;17.38;47.65
4410;BME280;2218;51.408;7.208;2023-03-13T04:54:19;98145.13;;;17.39;47.64
4410;BME280;2218;51.408;7.208;2023-03-13T04:57:06;98129.38;;;17.39;47.80
4410;BME280;2218;51.408;7.208;2023-03-13T04:59:38;98129.38;;;17.39;47.88
4410;BME280;2218;51.408;7.208;2023-03-13T05:02:22;98131.03;;;17.40;47.77
4410;BME280;2218;51.408;7.208;2023-03-13T05:05:09;98122.31;;;17.39;47.85
4410;BME280;2218;51.408;7.208;2023-03-13T05:07:48;98120.53;;;17.40;47.90
4410;BME280;2218;51.408;7.208;2023-03-13T05:10:33;98128.41;;;17.40;47.72
4410;BME280;2218;51.408;7.208;2023-03-13T05:13:16;98120.41;;;17.41;48.11
4410;BME280;2218;51.408;7.208;2023-03-13T05:16:01;98121.34;;;17.40;48.32
4410;BME280;2218;51.408;7.208;2023-03-13T05:18:34;98118.72;;;17.40;48.25
4410;BME280;2218;51.408;7.208;2023-03-13T05:21:21;98124.69;;;17.42;48.42
4410;BME280;2218;51.408;7.208;2023-03-13T05:24:14;98110.75;;;17.42;48.48
4410;BME280;2218;51.408;7.208;2023-03-13T05:27:07;98115.03;;;17.43;48.31
4410;BME280;2218;51.408;7.208;2023-03-13T05:29:43;98113.22;;;17.43;48.35
4410;BME280;2218;51.408;7.208;2023-03-13T05:32:33;98115.72;;;17.45;48.64
4410;BME280;2218;51.408;7.208;2023-03-13T05:35:36;98106.88;;;17.46;48.54
4410;BME280;2218;51.408;7.208;2023-03-13T05:38:22;98113.81;;;17.47;48.42
4410;BME280;2218;51.408;7.208;2023-03-13T05:41:11;98120.03;;;17.46;48.60
4410;BME280;2218;51.408;7.208;2023-03-13T05:43:54;98114.63;;;17.47;48.94
4410;BME280;2218;51.408;7.208;2023-03-13T05:46:32;98114.47;;;17.49;48.91
4410;BME280;2218;51.408;7.208;2023-03-13T05:49:15;98112.00;;;17.47;48.97
4410;BME280;2218;51.408;7.208;2023-03-13T05:51:52;98120.72;;;17.48;49.11
4410;BME280;2218;51.408;7.208;2023-03-13T05:54:54;98125.81;;;17.49;48.72
4410;BME280;2218;51.408;7.208;2023-03-13T05:57:32;98117.13;;;17.49;49.00
4410;BME280;2218;51.408;7.208;2023-03-13T06:00:26;98114.47;;;17.49;49.02
4410;BME280;2218;51.408;7.208;2023-03-13T06:03:20;98125.81;;;17.49;48.97
4410;BME280;2218;51.408;7.208;2023-03-13T06:05:56;98111.84;;;17.49;49.00
4410;BME280;2218;51.408;7.208;2023-03-13T06:08:44;98091.81;;;17.48;49.07
4410;BME280;2218;51.408;7.208;2023-03-13T06:11:11;98085.75;;;17.47;49.38
4410;BME280;2218;51.408;7.208;2023-03-13T06:13:38;98087.41;;;17.48;48.89
4410;BME280;2218;51.408;7.208;2023-03-13T06:16:24;98084.78;;;17.48;48.94
4410;BME280;2218;51.408;7.208;2023-03-13T06:18:56;98083.94;;;17.48;49.02
4410;BME280;2218;51.408;7.208;2023-03-13T06:21:23;98086.56;;;17.48;48.87
4410;BME280;2218;51.408;7.208;2023-03-13T06:23:50;98081.31;;;17.48;49.05
4410;BME280;2218;51.408;7.208;2023-03-13T06:26:17;98086.56;;;17.48;49.07
4410;BME280;2218;51.408;7.208;2023-03-13T06:28:44;98085.59;;;17.49;49.05
4410;BME280;2218;51.408;7.208;2023-03-13T06:31:11;98091.81;;;17.48;49.00
4410;BME280;2218;51.408;7.208;2023-03-13T06:33:38;98082.13;;;17.48;49.18
4410;BME280;2218;51.408;7.208;2023-03-13T06:36:07;98085.75;;;17.47;49.29
4410;BME280;2218;51.408;7.208;2023-03-13T06:38:34;98092.78;;;17.47;49.16
4410;BME280;2218;51.408;7.208;2023-03-13T06:41:01;98085.75;;;17.47;49.08
4410;BME280;2218;51.408;7.208;2023-03-13T06:43:28;98086.56;;;17.48;48.65
4410;BME280;2218;51.408;7.208;2023-03-13T06:45:55;98084.91;;;17.47;49.38
4410;BME280;2218;51.408;7.208;2023-03-13T06:48:22;98084.91;;;17.47;49.22
4410;BME280;2218;51.408;7.208;2023-03-13T06:50:49;98090.16;;;17.47;49.19
4410;BME280;2218;51.408;7.208;2023-03-13T06:53:19;98086.56;;;17.48;48.93
4410;BME280;2218;51.408;7.208;2023-03-13T06:55:47;98092.66;;;17.48;48.85
4410;BME280;2218;51.408;7.208;2023-03-13T06:58:14;98097.06;;;17.48;48.71
4410;BME280;2218;51.408;7.208;2023-03-13T07:00:41;98096.09;;;17.49;48.98
4410;BME280;2218;51.408;7.208;2023-03-13T07:03:09;98114.47;;;17.49;48.78
4410;BME280;2218;51.408;7.208;2023-03-13T07:05:36;98097.91;;;17.48;48.82
4410;BME280;2218;51.408;7.208;2023-03-13T07:08:03;98095.13;;;17.50;48.69
4410;BME280;2218;51.408;7.208;2023-03-13T07:10:32;98096.09;;;17.49;48.50
4410;BME280;2218;51.408;7.208;2023-03-13T07:12:58;98103.97;;;17.49;48.74
4410;BME280;2218;51.408;7.208;2023-03-13T07:15:25;98099.56;;;17.49;48.50
4410;BME280;2218;51.408;7.208;2023-03-13T07:17:55;98096.00;;;17.50;48.85
4410;BME280;2218;51.408;7.208;2023-03-13T07:20:22;98097.75;;;17.50;48.44
4410;BME280;2218;51.408;7.208;2023-03-13T07:22:51;98091.56;;;17.51;48.67
4410;BME280;2218;51.408;7.208;2023-03-13T07:25:18;98095.13;;;17.50;48.76
4410;BME280;2218;51.408;7.208;2023-03-13T07:27:50;98086.31;;;17.51;48.50
4410;BME280;2218;51.408;7.208;2023-03-13T07:30:18;98083.69;;;17.51;48.40
4410;BME280;2218;51.408;7.208;2023-03-13T07:32:45;98088.09;;;17.50;48.59
4410;BME280;2218;51.408;7.208;2023-03-13T07:35:12;98066.13;;;17.51;48.35
4410;BME280;2218;51.408;7.208;2023-03-13T07:37:38;98077.47;;;17.52;48.70
4410;BME280;2218;51.408;7.208;2023-03-13T07:40:07;98081.88;;;17.51;48.46
4410;BME280;2218;51.408;7.208;2023-03-13T07:42:34;98078.28;;;17.52;48.37
4410;BME280;2218;51.408;7.208;2023-03-13T07:45:03;98058.09;;;17.53;48.99
4410;BME280;2218;51.408;7.208;2023-03-13T07:47:33;98063.34;;;17.53;49.04
4410;BME280;2218;51.408;7.208;2023-03-13T07:50:00;98058.09;;;17.53;48.95
4410;BME280;2218;51.408;7.208;2023-03-13T07:52:27;98052.03;;;17.52;48.99
4410;BME280;2218;51.408;7.208;2023-03-13T07:54:53;98042.34;;;17.53;49.06
4410;BME280;2218;51.408;7.208;2023-03-13T07:57:20;98042.34;;;17.53;48.89
4410;BME280;2218;51.408;7.208;2023-03-13T07:59:47;98058.09;;;17.53;48.98
4410;BME280;2218;51.408;7.208;2023-03-13T08:02:16;98049.41;;;17.52;48.94
4410;BME280;2218;51.408;7.208;2023-03-13T08:04:43;98048.44;;;17.53;48.60
4410;BME280;2218;51.408;7.208;2023-03-13T08:07:10;98050.09;;;17.54;48.62
4410;BME280;2218;51.408;7.208;2023-03-13T08:09:37;98049.25;;;17.54;48.72
4410;BME280;2218;51.408;7.208;2023-03-13T08:12:07;98057.13;;;17.54;48.91
4410;BME280;2218;51.408;7.208;2023-03-13T08:14:34;98054.50;;;17.54;49.13
4410;BME280;2218;51.408;7.208;2023-03-13T08:17:01;98046.63;;;17.54;49.06
4410;BME280;2218;51.408;7.208;2023-03-13T08:19:30;98044.00;;;17.54;48.82
4410;BME280;2218;51.408;7.208;2023-03-13T08:21:56;98047.44;;;17.54;48.87
4410;BME280;2218;51.408;7.208;2023-03-13T08:24:23;98047.59;;;17.53;49.29
4410;BME280;2218;51.408;7.208;2023-03-13T08:26:50;98051.88;;;17.54;48.77
4410;BME280;2218;51.408;7.208;2023-03-13T08:29:17;98044.00;;;17.54;48.80
4410;BME280;2218;51.408;7.208;2023-03-13T08:31:46;98032.66;;;17.53;48.81
4410;BME280;2218;51.408;7.208;2023-03-13T08:34:15;98044.84;;;17.54;48.93
4410;BME280;2218;51.408;7.208;2023-03-13T08:36:44;98045.66;;;17.55;48.97
4410;BME280;2218;51.408;7.208;2023-03-13T08:39:14;98019.38;;;17.55;49.05
4410;BME280;2218;51.408;7.208;2023-03-13T08:41:41;98031.59;;;17.56;49.08
4410;BME280;2218;51.408;7.208;2023-03-13T08:44:10;98036.84;;;17.56;49.11
4410;BME280;2218;51.408;7.208;2023-03-13T08:46:38;98057.84;;;17.56;49.16
4410;BME280;2218;51.408;7.208;2023-03-13T08:49:07;98059.50;;;17.57;49.09
4410;BME280;2218;51.408;7.208;2023-03-13T08:51:35;98065.72;;;17.56;49.12
4410;BME280;2218;51.408;7.208;2023-03-13T08:54:04;98070.69;;;17.59;48.90
4410;BME280;2218;51.408;7.208;2023-03-13T08:56:32;98063.78;;;17.58;49.12
4410;BME280;2218;51.408;7.208;2023-03-13T08:59:01;98064.47;;;17.60;49.31
4410;BME280;2218;51.408;7.208;2023-03-13T09:01:31;98061.84;;;17.60;49.17
4410;BME280;2218;51.408;7.208;2023-03-13T09:03:59;98063.53;;;17.61;49.22
4410;BME280;2218;51.408;7.208;2023-03-13T09:06:26;98064.47;;;17.60;49.17
4410;BME280;2218;51.408;7.208;2023-03-13T09:08:55;98064.47;;;17.60;49.14
4410;BME280;2218;51.408;7.208;2023-03-13T09:11:25;98055.66;;;17.61;49.10
4410;BME280;2218;51.408;7.208;2023-03-13T09:13:54;98065.19;;;17.62;49.48
4410;BME280;2218;51.408;7.208;2023-03-13T09:16:22;98057.31;;;17.62;49.40
4410;BME280;2218;51.408;7.208;2023-03-13T09:18:51;98051.22;;;17.62;49.26
4410;BME280;2218;51.408;7.208;2023-03-13T09:21:21;98054.53;;;17.64;49.05
4410;BME280;2218;51.408;7.208;2023-03-13T09:23:49;98055.34;;;17.64;48.97
4410;BME280;2218;51.408;7.208;2023-03-13T09:26:17;98049.84;;;17.67;49.38
4410;BME280;2218;51.408;7.208;2023-03-13T09:28:46;98046.25;;;17.68;49.36
4410;BME280;2218;51.408;7.208;2023-03-13T09:31:15;98040.97;;;17.68;49.36
4410;BME280;2218;51.408;7.208;2023-03-13T09:33:44;98041.81;;;17.69;49.42
4410;BME280;2218;51.408;7.208;2023-03-13T09:36:12;98040.16;;;17.68;49.33
4410;BME280;2218;51.408;7.208;2023-03-13T09:38:39;98032.28;;;17.68;49.57
4410;BME280;2218;51.408;7.208;2023-03-13T09:41:22;98025.22;;;17.68;49.35
4410;BME280;2218;51.408;7.208;2023-03-13T09:43:59;98035.72;;;17.68;49.56
4410;BME280;2218;51.408;7.208;2023-03-13T09:46:36;98030.47;;;17.68;49.39
4410;BME280;2218;51.408;7.208;2023-03-13T09:49:12;98026.06;;;17.69;49.28
4410;BME280;2218;51.408;7.208;2023-03-13T09:51:43;98029.50;;;17.69;49.49
4410;BME280;2218;51.408;7.208;2023-03-13T09:54:22;98031.31;;;17.69;49.48
4410;BME280;2218;51.408;7.208;2023-03-13T09:56:55;98021.63;;;17.69;49.66
4410;BME280;2218;51.408;7.208;2023-03-13T09:59:32;98018.06;;;17.70;49.73
4410;BME280;2218;51.408;7.208;2023-03-13T10:02:23;98006.56;;;17.71;49.84
4410;BME280;2218;51.408;7.208;2023-03-13T10:04:58;98017.09;;;17.71;49.47
4410;BME280;2218;51.408;7.208;2023-03-13T10:07:27;98003.81;;;17.73;49.28
4410;BME280;2218;51.408;7.208;2023-03-13T10:09:54;98010.84;;;17.72;49.87
4410;BME280;2218;51.408;7.208;2023-03-13T10:12:26;98000.34;;;17.72;49.59
4410;BME280;2218;51.408;7.208;2023-03-13T10:15:17;98007.41;;;17.72;49.55
4410;BME280;2218;51.408;7.208;2023-03-13T10:17:47;97994.16;;;17.73;49.39
4410;BME280;2218;51.408;7.208;2023-03-13T10:20:23;97982.66;;;17.74;49.74
4410;BME280;2218;51.408;7.208;2023-03-13T10:22:57;97993.88;;;17.76;49.77
4410;BME280;2218;51.408;7.208;2023-03-13T10:25:30;97996.50;;;17.76;49.64
4410;BME280;2218;51.408;7.208;2023-03-13T10:27:58;97987.50;;;17.79;49.39
4410;BME280;2218;51.408;7.208;2023-03-13T10:30:29;97977.00;;;17.79;49.83
4410;BME280;2218;51.408;7.208;2023-03-13T10:32:59;97974.25;;;17.80;49.92
4410;BME280;2218;51.408;7.208;2023-03-13T10:35:35;97974.25;;;17.80;49.79
4410;BME280;2218;51.408;7.208;2023-03-13T10:38:07;97968.03;;;17.81;49.88
4410;BME280;2218;51.408;7.208;2023-03-13T10:40:36;97970.66;;;17.81;49.62
4410;BME280;2218;51.408;7.208;2023-03-13T10:43:05;97964.41;;;17.82;49.96
4410;BME280;2218;51.408;7.208;2023-03-13T10:45:39;97963.59;;;17.82;49.75
4410;BME280;2218;51.408;7.208;2023-03-13T10:48:13;97959.31;;;17.81;50.02
4410;BME280;2218;51.408;7.208;2023-03-13T10:50:44;97960.13;;;17.81;50.12
4410;BME280;2218;51.408;7.208;2023-03-13T10:53:25;97963.44;;;17.83;49.88
4410;BME280;2218;51.408;7.208;2023-03-13T10:56:04;97955.56;;;17.83;49.72
4410;BME280;2218;51.408;7.208;2023-03-13T10:58:42;97948.50;;;17.84;50.23
4410;BME280;2218;51.408;7.208;2023-03-13T11:01:20;97944.06;;;17.85;49.78
4410;BME280;2218;51.408;7.208;2023-03-13T11:03:50;97941.44;;;17.85;49.90
4410;BME280;2218;51.408;7.208;2023-03-13T11:06:29;97941.34;;;17.86;50.04
4410;BME280;2218;51.408;7.208;2023-03-13T11:09:09;97942.16;;;17.87;49.91
4410;BME280;2218;51.408;7.208;2023-03-13T11:11:47;97925.41;;;17.88;49.63
4410;BME280;2218;51.408;7.208;2023-03-13T11:14:18;97929.03;;;17.87;50.21
4410;BME280;2218;51.408;7.208;2023-03-13T11:16:53;97914.91;;;17.88;50.08
4410;BME280;2218;51.408;7.208;2023-03-13T11:19:34;97910.31;;;17.90;50.16
4410;BME280;2218;51.408;7.208;2023-03-13T11:25:22;97905.78;;;17.92;50.51
4410;BME280;2218;51.408;7.208;2023-03-13T11:28:07;97907.56;;;17.91;50.23
4410;BME280;2218;51.408;7.208;2023-03-13T11:30:55;97904.94;;;17.91;50.32
4410;BME280;2218;51.408;7.208;2023-03-13T11:33:37;97904.94;;;17.91;50.32
4410;BME280;2218;51.408;7.208;2023-03-13T11:36:18;97907.56;;;17.91;50.14
4410;BME280;2218;51.408;7.208;2023-03-13T11:38:52;97895.25;;;17.92;50.25
4410;BME280;2218;51.408;7.208;2023-03-13T11:41:36;97894.13;;;17.94;50.31
4410;BME280;2218;51.408;7.208;2023-03-13T11:44:22;97905.47;;;17.95;50.37
4410;BME280;2218;51.408;7.208;2023-03-13T11:47:07;97873.94;;;17.95;50.30
4410;BME280;2218;51.408;7.208;2023-03-13T11:50:06;97876.72;;;17.93;50.21
4410;BME280;2218;51.408;7.208;2023-03-13T11:52:57;97884.44;;;17.95;50.44
4410;BME280;2218;51.408;7.208;2023-03-13T11:55:39;97868.69;;;17.95;50.40
4410;BME280;2218;51.408;7.208;2023-03-13T11:58:33;97873.00;;;17.96;50.18
4410;BME280;2218;51.408;7.208;2023-03-13T12:01:08;97853.78;;;17.95;50.18
4410;BME280;2218;51.408;7.208;2023-03-13T12:03:43;97863.31;;;17.96;50.24
4410;BME280;2218;51.408;7.208;2023-03-13T12:06:25;97860.69;;;17.96;50.30
4410;BME280;2218;51.408;7.208;2023-03-13T12:09:01;97854.28;;;17.99;49.94
4410;BME280;2218;51.408;7.208;2023-03-13T12:11:36;97849.03;;;17.99;50.48
4410;BME280;2218;51.408;7.208;2023-03-13T12:14:14;97834.91;;;18.00;50.16
4410;BME280;2218;51.408;7.208;2023-03-13T12:16:48;97833.97;;;18.01;50.35
4410;BME280;2218;51.408;7.208;2023-03-13T12:19:25;97827.03;;;18.00;50.17
4410;BME280;2218;51.408;7.208;2023-03-13T12:22:02;97841.84;;;18.01;50.51
4410;BME280;2218;51.408;7.208;2023-03-13T12:24:39;97819.03;;;18.01;50.35
4410;BME280;2218;51.408;7.208;2023-03-13T12:27:14;97822.47;;;18.02;50.10
4410;BME280;2218;51.408;7.208;2023-03-13T12:29:52;97822.47;;;18.02;50.05
4410;BME280;2218;51.408;7.208;2023-03-13T12:32:31;97820.53;;;18.04;50.27
4410;BME280;2218;51.408;7.208;2023-03-13T12:35:14;97817.06;;;18.03;50.52
4410;BME280;2218;51.408;7.208;2023-03-13T12:37:52;97811.00;;;18.03;50.31
4410;BME280;2218;51.408;7.208;2023-03-13T12:40:27;97810.00;;;18.04;50.55
4410;BME280;2218;51.408;7.208;2023-03-13T12:43:03;97824.81;;;18.05;50.55
4410;BME280;2218;51.408;7.208;2023-03-13T12:45:48;97826.59;;;18.04;50.52
4410;BME280;2218;51.408;7.208;2023-03-13T12:48:39;97812.34;;;18.07;50.01
4410;BME280;2218;51.408;7.208;2023-03-13T12:51:29;97810.84;;;18.04;50.33
4410;BME280;2218;51.408;7.208;2023-03-13T12:54:30;97805.72;;;18.03;50.39
4410;BME280;2218;51.408;7.208;2023-03-13T12:57:17;97808.22;;;18.04;50.33
4410;BME280;2218;51.408;7.208;2023-03-13T12:59:51;97810.00;;;18.04;50.33
4410;BME280;2218;51.408;7.208;2023-03-13T13:02:22;97793.97;;;18.07;50.20
4410;BME280;2218;51.408;7.208;2023-03-13T13:04:53;97792.44;;;18.04;50.22
4410;BME280;2218;51.408;7.208;2023-03-13T13:07:24;97783.44;;;18.07;50.11
4410;BME280;2218;51.408;7.208;2023-03-13T13:10:16;97783.44;;;18.07;50.46
4410;BME280;2218;51.408;7.208;2023-03-13T13:12:47;97786.06;;;18.07;50.36
4410;BME280;2218;51.408;7.208;2023-03-13T13:15:33;97755.50;;;18.06;50.36
4410;BME280;2218;51.408;7.208;2023-03-13T13:18:13;97749.28;;;18.07;49.97
4410;BME280;2218;51.408;7.208;2023-03-13T13:20:45;97750.09;;;18.07;50.36
4410;BME280;2218;51.408;7.208;2023-03-13T13:23:31;97767.69;;;18.07;50.17
4410;BME280;2218;51.408;7.208;2023-03-13T13:26:50;97764.06;;;18.08;50.05
4410;BME280;2218;51.408;7.208;2023-03-13T13:29:53;97754.53;;;18.07;50.29
4410;BME280;2218;51.408;7.208;2023-03-13T13:32:39;97756.19;;;18.08;50.20
4410;BME280;2218;51.408;7.208;2023-03-13T13:35:30;97742.06;;;18.09;49.98
4410;BME280;2218;51.408;7.208;2023-03-13T13:38:27;97751.75;;;18.08;50.18
4410;BME280;2218;51.408;7.208;2023-03-13T13:41:04;97739.44;;;18.09;50.03
4410;BME280;2218;51.408;7.208;2023-03-13T13:43:37;97754.25;;;18.10;50.13
4410;BME280;2218;51.408;7.208;2023-03-13T13:46:17;97739.31;;;18.11;50.13
4410;BME280;2218;51.408;7.208;2023-03-13T13:49:14;97749.00;;;18.10;50.13
4410;BME280;2218;51.408;7.208;2023-03-13T13:55:43;97746.38;;;18.10;50.22
4410;BME280;2218;51.408;7.208;2023-03-13T13:58:16;97724.50;;;18.09;50.14
4410;BME280;2218;51.408;7.208;2023-03-13T14:00:51;97735.84;;;18.10;49.99
4410;BME280;2218;51.408;7.208;2023-03-13T14:03:23;97725.34;;;18.10;50.47